createdAt,value
2023-07-03T00:00:20.448Z,3.97
2023-07-03T00:01:02.875Z,4.50
2023-07-03T00:01:45.807Z,5.50
2023-07-03T00:02:28.386Z,4.97
2023-07-03T00:03:17.279Z,4.10
2023-07-03T00:03:59.552Z,4.55
2023-07-03T00:04:47.067Z,4.57
2023-07-03T00:05:31.514Z,4.55
2023-07-03T00:06:13.832Z,4.60
2023-07-03T00:06:56.120Z,4.20
2023-07-03T00:07:38.735Z,3.60
2023-07-03T00:08:21.010Z,4.18
2023-07-03T00:09:03.266Z,4.10
2023-07-03T00:09:45.520Z,3.90
2023-07-03T00:10:27.751Z,4.90
2023-07-03T00:11:12.161Z,4.13
2023-07-03T00:11:54.399Z,3.75
2023-07-03T00:12:36.592Z,3.90
2023-07-03T00:13:18.854Z,3.90
2023-07-03T00:14:01.293Z,3.85
2023-07-03T00:14:43.522Z,3.92
2023-07-03T00:15:25.737Z,4.50
2023-07-03T00:16:08.398Z,4.60
2023-07-03T00:16:50.957Z,4.18
2023-07-03T00:17:33.415Z,4.20
2023-07-03T00:18:15.875Z,3.95
2023-07-03T00:18:58.369Z,4.03
2023-07-03T00:19:40.538Z,4.65
2023-07-03T00:20:22.774Z,4.40
2023-07-03T00:21:06.138Z,4.60
2023-07-03T00:21:49.267Z,4.47
2023-07-03T00:22:31.462Z,3.95
2023-07-03T00:23:13.668Z,4.22
2023-07-03T00:23:55.871Z,4.55
2023-07-03T00:24:40.353Z,4.45
2023-07-03T00:25:23.429Z,4.45
2023-07-03T00:26:05.629Z,3.90
2023-07-03T00:26:47.915Z,3.97
2023-07-03T00:27:32.246Z,4.28
2023-07-03T00:28:14.435Z,4.07
2023-07-03T00:28:56.655Z,4.00
2023-07-03T00:29:38.833Z,4.75
2023-07-03T00:30:21.323Z,4.20
2023-07-03T00:31:03.532Z,4.63
2023-07-03T00:31:45.855Z,4.20
2023-07-03T00:32:29.384Z,4.25
2023-07-03T00:33:14.458Z,3.50
2023-07-03T00:33:56.669Z,3.67
2023-07-03T00:34:38.870Z,4.38
2023-07-03T00:35:21.870Z,4.32
2023-07-03T00:36:04.378Z,4.22
2023-07-03T00:36:46.828Z,3.92
2023-07-03T00:37:29.252Z,3.90
2023-07-03T00:38:11.459Z,3.67
2023-07-03T00:38:58.438Z,4.20
2023-07-03T00:39:40.602Z,3.90
2023-07-03T00:40:22.804Z,4.20
2023-07-03T00:41:07.750Z,3.72
2023-07-03T00:41:52.345Z,3.60
2023-07-03T00:42:34.578Z,3.90
2023-07-03T00:43:16.891Z,3.03
2023-07-03T00:43:59.410Z,3.97
2023-07-03T00:44:41.600Z,4.13
2023-07-03T00:45:24.093Z,4.97
2023-07-03T00:46:06.319Z,3.83
2023-07-03T00:46:51.736Z,3.83
2023-07-03T00:47:34.018Z,3.50
2023-07-03T00:48:16.424Z,3.30
2023-07-03T00:48:58.766Z,4.78
2023-07-03T00:49:41.030Z,4.30
2023-07-03T00:50:23.631Z,4.00
2023-07-03T00:51:05.978Z,4.13
2023-07-03T00:51:51.324Z,3.80
2023-07-03T00:52:33.569Z,4.40
2023-07-03T00:53:16.319Z,3.40
2023-07-03T00:53:58.841Z,4.50
2023-07-03T00:54:41.528Z,4.38
2023-07-03T00:55:24.470Z,4.25
2023-07-03T00:56:06.866Z,3.72
2023-07-03T00:56:49.479Z,3.80
2023-07-03T00:57:31.721Z,3.92
2023-07-03T00:58:13.918Z,4.10
2023-07-03T00:58:56.214Z,4.38
2023-07-03T00:59:38.464Z,4.28
2023-07-03T01:00:24.796Z,3.50
2023-07-03T01:01:09.974Z,5.22
2023-07-03T01:01:57.657Z,4.97
2023-07-03T01:02:41.467Z,4.30
2023-07-03T01:03:36.710Z,4.13
2023-07-03T01:04:20.996Z,3.95
2023-07-03T01:05:07.899Z,4.32
2023-07-03T01:05:51.458Z,4.40
2023-07-03T01:06:42.194Z,4.35
2023-07-03T01:07:26.775Z,4.50
2023-07-03T01:08:10.752Z,4.80
2023-07-03T01:08:55.087Z,4.65
2023-07-03T01:09:42.199Z,3.90
2023-07-03T01:10:25.818Z,4.10
2023-07-03T01:11:08.783Z,3.90
2023-07-03T01:11:51.730Z,4.20
2023-07-03T01:12:36.380Z,4.43
2023-07-03T01:13:19.876Z,4.50
2023-07-03T01:14:03.024Z,4.68
2023-07-03T01:14:46.536Z,4.72
2023-07-03T01:15:32.745Z,4.63
2023-07-03T01:16:17.964Z,4.80
2023-07-03T01:17:00.792Z,4.40
2023-07-03T01:17:44.526Z,4.80
2023-07-03T01:18:27.169Z,4.00
2023-07-03T01:19:11.777Z,4.07
2023-07-03T01:19:54.836Z,4.00
2023-07-03T01:20:49.512Z,3.85
2023-07-03T01:21:48.644Z,4.50
2023-07-03T01:22:32.848Z,5.00
2023-07-03T01:23:31.402Z,4.13
2023-07-03T01:24:22.232Z,5.18
2023-07-03T01:25:10.185Z,5.22
2023-07-03T01:25:53.996Z,4.47
2023-07-03T01:26:36.642Z,4.57
2023-07-03T01:27:21.123Z,4.55
2023-07-03T01:28:04.521Z,4.70
2023-07-03T01:28:47.887Z,4.40
2023-07-03T01:29:30.728Z,4.30
2023-07-03T01:30:15.737Z,4.53
2023-07-03T01:31:00.416Z,4.80
2023-07-03T01:31:43.747Z,5.00
2023-07-03T01:32:28.802Z,4.35
2023-07-03T01:33:16.066Z,4.40
2023-07-03T01:34:00.883Z,4.47
2023-07-03T01:34:46.695Z,4.50
2023-07-03T01:35:29.750Z,4.30
2023-07-03T01:36:13.676Z,4.70
2023-07-03T01:36:58.346Z,4.30
2023-07-03T01:37:41.742Z,3.97
2023-07-03T01:38:25.231Z,3.90
2023-07-03T01:39:08.108Z,4.30
2023-07-03T01:39:50.888Z,3.80
2023-07-03T01:40:33.261Z,3.50
2023-07-03T01:41:17.802Z,3.75
2023-07-03T01:42:00.603Z,4.20
2023-07-03T01:42:42.827Z,3.90
2023-07-03T01:43:25.129Z,3.90
2023-07-03T01:44:07.362Z,4.38
2023-07-03T01:44:51.839Z,3.92
2023-07-03T01:45:44.052Z,4.07
2023-07-03T01:46:29.306Z,4.68
2023-07-03T01:47:15.813Z,5.13
2023-07-03T01:47:58.092Z,4.13
2023-07-03T01:48:40.376Z,4.20
2023-07-03T01:49:22.606Z,4.90
2023-07-03T01:50:09.894Z,5.20
2023-07-03T01:50:52.522Z,4.40
2023-07-03T01:51:40.126Z,4.55
2023-07-03T01:52:24.024Z,4.75
2023-07-03T01:53:21.194Z,4.20
2023-07-03T01:54:10.923Z,4.32
2023-07-03T01:55:07.218Z,4.40
2023-07-03T01:55:55.460Z,4.25
2023-07-03T01:56:40.031Z,4.50
2023-07-03T01:57:26.365Z,5.20
2023-07-03T01:58:15.061Z,4.07
2023-07-03T01:59:16.186Z,4.90
2023-07-03T02:00:01.908Z,4.50
2023-07-03T02:00:47.893Z,4.70
2023-07-03T02:01:33.161Z,4.88
2023-07-03T02:02:17.426Z,4.40
2023-07-03T02:03:01.916Z,3.83
2023-07-03T02:03:56.056Z,4.70
2023-07-03T02:04:51.284Z,4.22
2023-07-03T02:05:36.145Z,4.78
2023-07-03T02:06:26.467Z,4.28
2023-07-03T02:07:10.005Z,4.13
2023-07-03T02:07:54.410Z,4.10
2023-07-03T02:08:37.392Z,4.53
2023-07-03T02:09:20.082Z,4.80
2023-07-03T02:10:03.956Z,5.05
2023-07-03T02:10:46.521Z,4.30
2023-07-03T02:11:30.055Z,4.80
2023-07-03T02:12:12.538Z,4.90
2023-07-03T02:12:54.819Z,5.70
2023-07-03T02:13:37.039Z,5.47
2023-07-03T02:14:20.685Z,4.53
2023-07-03T02:15:04.078Z,4.25
2023-07-03T02:15:46.314Z,4.63
2023-07-03T02:16:30.727Z,4.40
2023-07-03T02:17:13.364Z,4.85
2023-07-03T02:17:57.096Z,4.35
2023-07-03T02:18:39.406Z,3.60
2023-07-03T02:19:28.556Z,4.40
2023-07-03T02:20:16.095Z,5.03
2023-07-03T02:20:58.331Z,4.80
2023-07-03T02:21:40.901Z,4.30
2023-07-03T02:22:23.383Z,4.45
2023-07-03T02:23:05.804Z,4.20
2023-07-03T02:23:48.666Z,5.10
2023-07-03T02:24:31.140Z,4.28
2023-07-03T02:25:13.448Z,4.20
2023-07-03T02:25:55.929Z,4.88
2023-07-03T02:26:38.121Z,5.10
2023-07-03T02:27:20.909Z,4.22
2023-07-03T02:28:03.093Z,3.92
2023-07-03T02:28:45.299Z,4.35
2023-07-03T02:29:27.626Z,5.05
2023-07-03T02:30:09.964Z,4.20
2023-07-03T02:30:52.304Z,4.50
2023-07-03T02:31:34.551Z,4.90
2023-07-03T02:32:19.286Z,4.78
2023-07-03T02:33:03.894Z,5.18
2023-07-03T02:33:46.336Z,5.53
2023-07-03T02:34:29.377Z,4.55
2023-07-03T02:35:12.415Z,3.95
2023-07-03T02:35:56.716Z,4.22
2023-07-03T02:36:41.769Z,4.50
2023-07-03T02:37:24.012Z,4.10
2023-07-03T02:38:06.203Z,4.20
2023-07-03T02:38:48.379Z,4.53
2023-07-03T02:39:30.788Z,4.38
2023-07-03T02:40:17.017Z,4.80
2023-07-03T02:40:59.223Z,4.38
2023-07-03T02:41:41.464Z,5.10
2023-07-03T02:42:24.060Z,4.90
2023-07-03T02:43:06.392Z,4.43
2023-07-03T02:43:51.195Z,4.97
2023-07-03T02:44:34.275Z,4.57
2023-07-03T02:45:17.307Z,3.80
2023-07-03T02:46:06.175Z,3.83
2023-07-03T02:46:48.561Z,4.05
2023-07-03T02:47:36.489Z,4.70
2023-07-03T02:48:19.164Z,4.70
2023-07-03T02:49:01.595Z,4.15
2023-07-03T02:49:44.116Z,4.47
2023-07-03T02:50:26.308Z,4.90
2023-07-03T02:51:08.524Z,4.68
2023-07-03T02:51:51.006Z,5.05
2023-07-03T02:52:33.238Z,4.97
2023-07-03T02:53:15.428Z,4.65
2023-07-03T02:53:58.112Z,5.30
2023-07-03T02:54:40.312Z,4.53
2023-07-03T02:55:22.496Z,4.40
2023-07-03T02:56:05.024Z,4.70
2023-07-03T02:56:47.287Z,4.70
2023-07-03T02:57:29.711Z,4.25
2023-07-03T02:58:14.302Z,3.80
2023-07-03T02:58:56.495Z,3.95
2023-07-03T02:59:41.396Z,4.32
2023-07-03T03:00:23.628Z,5.00
2023-07-03T03:01:06.197Z,4.93
2023-07-03T03:01:48.469Z,4.43
2023-07-03T03:02:30.775Z,4.03
2023-07-03T03:03:16.875Z,4.00
2023-07-03T03:03:59.813Z,4.70
2023-07-03T03:04:42.253Z,4.63
2023-07-03T03:05:24.506Z,4.63
2023-07-03T03:06:07.518Z,4.22
2023-07-03T03:06:52.607Z,4.05
2023-07-03T03:07:37.200Z,4.15
2023-07-03T03:08:19.591Z,3.90
2023-07-03T03:09:04.006Z,4.10
2023-07-03T03:09:46.262Z,4.00
2023-07-03T03:10:28.553Z,5.13
2023-07-03T03:11:11.281Z,4.65
2023-07-03T03:11:53.464Z,4.35
2023-07-03T03:12:35.656Z,4.00
2023-07-03T03:13:18.721Z,4.70
2023-07-03T03:14:01.126Z,4.65
2023-07-03T03:14:43.354Z,4.95
2023-07-03T03:15:26.118Z,4.50
2023-07-03T03:16:08.379Z,4.30
2023-07-03T03:16:50.770Z,3.97
2023-07-03T03:17:33.033Z,4.90
2023-07-03T03:18:15.262Z,5.55
2023-07-03T03:18:57.538Z,4.60
2023-07-03T03:19:39.737Z,4.35
2023-07-03T03:20:22.106Z,4.60
2023-07-03T03:21:04.490Z,4.50
2023-07-03T03:21:49.442Z,4.57
2023-07-03T03:22:31.584Z,4.50
2023-07-03T03:23:16.630Z,3.80
2023-07-03T03:24:01.258Z,4.47
2023-07-03T03:24:43.514Z,4.75
2023-07-03T03:25:26.412Z,4.25
2023-07-03T03:26:08.717Z,4.18
2023-07-03T03:26:51.226Z,3.97
2023-07-03T03:27:34.184Z,4.30
2023-07-03T03:28:16.374Z,4.80
2023-07-03T03:28:58.613Z,4.53
2023-07-03T03:29:40.886Z,4.40
2023-07-03T03:30:23.399Z,3.97
2023-07-03T03:31:05.760Z,3.95
2023-07-03T03:31:48.297Z,4.90
2023-07-03T03:32:30.609Z,3.72
2023-07-03T03:33:12.926Z,4.47
2023-07-03T03:33:57.654Z,4.32
2023-07-03T03:34:39.891Z,4.28
2023-07-03T03:35:24.507Z,5.00
2023-07-03T03:36:06.761Z,4.60
2023-07-03T03:36:49.244Z,3.95
2023-07-03T03:37:31.429Z,4.20
2023-07-03T03:38:13.750Z,4.35
2023-07-03T03:38:56.254Z,4.32
2023-07-03T03:39:38.457Z,4.10
2023-07-03T03:40:20.669Z,3.92
2023-07-03T03:41:04.491Z,4.20
2023-07-03T03:41:47.273Z,4.50
2023-07-03T03:42:29.471Z,4.75
2023-07-03T03:43:11.669Z,5.60
2023-07-03T03:43:56.518Z,4.75
2023-07-03T03:44:42.036Z,4.47
2023-07-03T03:45:25.356Z,4.72
2023-07-03T03:46:07.642Z,4.13
2023-07-03T03:46:49.957Z,4.85
2023-07-03T03:47:32.376Z,4.20
2023-07-03T03:48:14.801Z,4.78
2023-07-03T03:48:57.322Z,4.80
2023-07-03T03:49:40.714Z,3.95
2023-07-03T03:50:23.303Z,4.32
2023-07-03T03:51:05.576Z,4.20
2023-07-03T03:51:47.813Z,4.60
2023-07-03T03:52:32.177Z,4.35
2023-07-03T03:53:14.362Z,4.63
2023-07-03T03:53:56.594Z,5.30
2023-07-03T03:54:41.465Z,3.67
2023-07-03T03:55:23.722Z,4.40
2023-07-03T03:56:06.099Z,4.40
2023-07-03T03:56:48.525Z,4.30
2023-07-03T03:57:31.035Z,5.25
2023-07-03T03:58:13.253Z,5.20
2023-07-03T03:58:55.497Z,4.68
2023-07-03T03:59:37.717Z,4.43
2023-07-03T04:00:21.590Z,4.10
2023-07-03T04:01:04.246Z,3.80
2023-07-03T04:01:46.541Z,3.90
2023-07-03T04:02:28.791Z,3.70
2023-07-03T04:03:11.368Z,3.97
2023-07-03T04:03:53.667Z,4.82
2023-07-03T04:04:36.325Z,5.10
2023-07-03T04:05:18.749Z,5.90
2023-07-03T04:06:01.271Z,5.93
2023-07-03T04:06:44.312Z,4.75
2023-07-03T04:07:26.565Z,4.78
2023-07-03T04:08:11.831Z,4.40
2023-07-03T04:08:54.316Z,4.97
2023-07-03T04:09:36.510Z,5.15
2023-07-03T04:10:21.296Z,4.78
2023-07-03T04:11:04.273Z,4.00
2023-07-03T04:11:46.471Z,5.20
2023-07-03T04:12:29.301Z,4.60
2023-07-03T04:13:14.360Z,4.35
2023-07-03T04:13:56.584Z,4.82
2023-07-03T04:14:39.345Z,4.15
2023-07-03T04:15:23.584Z,4.97
2023-07-03T04:16:06.331Z,5.00
2023-07-03T04:16:51.396Z,4.70
2023-07-03T04:17:33.715Z,4.35
2023-07-03T04:18:16.356Z,4.35
2023-07-03T04:18:58.602Z,4.90
2023-07-03T04:19:40.798Z,5.07
2023-07-03T04:20:22.999Z,4.57
2023-07-03T04:21:07.760Z,4.38
2023-07-03T04:21:49.995Z,4.97
2023-07-03T04:22:34.585Z,4.85
2023-07-03T04:23:17.379Z,4.72
2023-07-03T04:23:59.737Z,4.25
2023-07-03T04:24:44.340Z,4.03
2023-07-03T04:25:26.629Z,4.80
2023-07-03T04:26:08.861Z,5.30
2023-07-03T04:26:57.324Z,4.75
2023-07-03T04:27:39.534Z,4.65
2023-07-03T04:28:22.997Z,4.60
2023-07-03T04:29:05.380Z,4.53
2023-07-03T04:29:47.559Z,4.57
2023-07-03T04:30:29.747Z,4.30
2023-07-03T04:31:12.436Z,4.00
2023-07-03T04:31:54.871Z,5.63
2023-07-03T04:32:38.679Z,6.30
2023-07-03T04:33:21.064Z,3.90
2023-07-03T04:34:03.480Z,4.35
2023-07-03T04:34:45.646Z,5.00
2023-07-03T04:35:27.873Z,4.70
2023-07-03T04:36:13.221Z,4.93
2023-07-03T04:36:55.426Z,5.05
2023-07-03T04:37:38.290Z,4.60
2023-07-03T04:38:24.799Z,5.57
2023-07-03T04:39:09.046Z,4.68
2023-07-03T04:39:51.438Z,4.47
2023-07-03T04:40:36.320Z,4.75
2023-07-03T04:41:19.525Z,4.85
2023-07-03T04:42:02.036Z,4.82
2023-07-03T04:42:44.498Z,5.05
2023-07-03T04:43:26.723Z,5.65
2023-07-03T04:44:13.400Z,5.78
2023-07-03T04:44:55.750Z,5.18
2023-07-03T04:45:44.769Z,4.65
2023-07-03T04:46:27.886Z,4.60
2023-07-03T04:47:10.659Z,4.80
2023-07-03T04:47:53.584Z,5.10
2023-07-03T04:48:35.822Z,5.30
2023-07-03T04:49:18.051Z,5.57
2023-07-03T04:50:00.407Z,5.07
2023-07-03T04:50:42.610Z,4.70
2023-07-03T04:51:24.827Z,5.00
2023-07-03T04:52:09.469Z,5.07
2023-07-03T04:52:51.662Z,4.55
2023-07-03T04:53:40.755Z,4.90
2023-07-03T04:54:23.520Z,4.80
2023-07-03T04:55:06.417Z,4.90
2023-07-03T04:55:49.138Z,5.43
2023-07-03T04:56:33.355Z,5.40
2023-07-03T04:57:15.625Z,5.32
2023-07-03T04:57:58.598Z,5.32
2023-07-03T04:58:41.025Z,5.15
2023-07-03T04:59:23.221Z,5.43
2023-07-03T05:00:10.803Z,5.80
2023-07-03T05:00:54.036Z,5.43
2023-07-03T05:01:36.487Z,6.50
2023-07-03T05:02:19.424Z,5.78
2023-07-03T05:03:07.683Z,5.90
2023-07-03T05:03:49.937Z,5.55
2023-07-03T05:04:32.161Z,4.90
2023-07-03T05:05:15.474Z,4.72
2023-07-03T05:05:57.688Z,4.43
2023-07-03T05:06:40.228Z,4.60
2023-07-03T05:07:24.065Z,5.00
2023-07-03T05:08:06.853Z,4.70
2023-07-03T05:08:49.144Z,4.80
2023-07-03T05:09:31.569Z,5.38
2023-07-03T05:10:17.868Z,4.90
2023-07-03T05:11:00.938Z,5.00
2023-07-03T05:11:43.180Z,5.10
2023-07-03T05:12:27.805Z,4.68
2023-07-03T05:13:10.028Z,5.20
2023-07-03T05:13:55.037Z,5.30
2023-07-03T05:14:37.276Z,5.20
2023-07-03T05:15:20.693Z,4.90
2023-07-03T05:16:03.038Z,4.70
2023-07-03T05:16:48.165Z,5.05
2023-07-03T05:17:32.794Z,5.20
2023-07-03T05:18:15.136Z,5.05
2023-07-03T05:18:57.693Z,4.68
2023-07-03T05:19:39.939Z,5.55
2023-07-03T05:20:23.720Z,5.23
2023-07-03T05:21:09.469Z,5.40
2023-07-03T05:21:51.681Z,4.57
2023-07-03T05:22:34.064Z,4.80
2023-07-03T05:23:16.725Z,4.75
2023-07-03T05:23:58.981Z,4.80
2023-07-03T05:24:43.796Z,5.53
2023-07-03T05:25:26.089Z,5.07
2023-07-03T05:26:08.313Z,5.15
2023-07-03T05:26:50.686Z,5.25
2023-07-03T05:27:33.106Z,4.70
2023-07-03T05:28:15.779Z,4.40
2023-07-03T05:28:58.038Z,4.50
2023-07-03T05:29:40.222Z,4.80
2023-07-03T05:30:22.699Z,4.68
2023-07-03T05:31:07.988Z,4.40
2023-07-03T05:31:50.313Z,4.63
2023-07-03T05:32:32.798Z,5.80
2023-07-03T05:33:17.026Z,5.60
2023-07-03T05:33:59.285Z,5.20
2023-07-03T05:34:41.731Z,5.38
2023-07-03T05:35:24.003Z,5.53
2023-07-03T05:36:06.893Z,4.90
2023-07-03T05:36:49.090Z,4.30
2023-07-03T05:37:31.394Z,4.80
2023-07-03T05:38:13.706Z,4.50
2023-07-03T05:38:55.951Z,4.78
2023-07-03T05:39:40.643Z,4.60
2023-07-03T05:40:23.026Z,5.72
2023-07-03T05:41:05.285Z,5.78
2023-07-03T05:41:47.725Z,5.75
2023-07-03T05:42:29.996Z,5.55
2023-07-03T05:43:12.818Z,5.00
2023-07-03T05:43:55.077Z,4.93
2023-07-03T05:44:38.046Z,6.07
2023-07-03T05:45:20.287Z,5.25
2023-07-03T05:46:02.755Z,5.43
2023-07-03T05:46:44.971Z,4.83
2023-07-03T05:47:27.455Z,4.80
2023-07-03T05:48:10.055Z,5.70
2023-07-03T05:48:52.766Z,5.30
2023-07-03T05:49:34.955Z,4.80
2023-07-03T05:50:17.193Z,5.25
2023-07-03T05:50:59.442Z,4.95
2023-07-03T05:51:43.696Z,5.55
2023-07-03T05:52:26.333Z,5.78
2023-07-03T05:53:10.314Z,4.82
2023-07-03T05:53:52.786Z,5.03
2023-07-03T05:54:35.034Z,5.80
2023-07-03T05:55:17.302Z,5.25
2023-07-03T05:56:00.066Z,4.93
2023-07-03T05:56:44.170Z,5.20
2023-07-03T05:57:26.615Z,4.90
2023-07-03T05:58:08.842Z,5.10
2023-07-03T05:58:51.094Z,5.43
2023-07-03T05:59:36.027Z,5.40
2023-07-03T06:00:18.779Z,5.72
2023-07-03T06:01:01.345Z,5.05
2023-07-03T06:01:44.252Z,5.10
2023-07-03T06:02:26.518Z,4.88
2023-07-03T06:03:12.643Z,4.28
2023-07-03T06:03:54.958Z,4.53
2023-07-03T06:04:37.312Z,4.60
2023-07-03T06:05:21.425Z,5.10
2023-07-03T06:06:05.917Z,4.47
2023-07-03T06:06:48.142Z,5.00
2023-07-03T06:07:30.364Z,4.82
2023-07-03T06:08:13.139Z,4.50
2023-07-03T06:08:55.364Z,4.40
2023-07-03T06:09:40.774Z,4.20
2023-07-03T06:10:24.773Z,4.63
2023-07-03T06:11:07.107Z,4.80
2023-07-03T06:11:49.359Z,4.78
2023-07-03T06:12:31.887Z,5.40
2023-07-03T06:13:14.930Z,5.13
2023-07-03T06:13:57.158Z,5.40
2023-07-03T06:14:39.389Z,5.70
2023-07-03T06:15:23.935Z,5.28
2023-07-03T06:16:06.203Z,4.70
2023-07-03T06:16:49.745Z,5.40
2023-07-03T06:17:32.611Z,5.07
2023-07-03T06:18:15.857Z,4.80
2023-07-03T06:18:58.059Z,5.38
2023-07-03T06:19:40.355Z,5.55
2023-07-03T06:20:22.898Z,5.05
2023-07-03T06:21:05.170Z,5.60
2023-07-03T06:21:48.620Z,5.50
2023-07-03T06:22:30.851Z,4.90
2023-07-03T06:23:13.068Z,4.40
2023-07-03T06:23:55.261Z,4.80
2023-07-03T06:24:37.547Z,4.43
2023-07-03T06:25:19.785Z,5.00
2023-07-03T06:26:02.030Z,4.78
2023-07-03T06:26:45.119Z,4.90
2023-07-03T06:27:27.417Z,5.55
2023-07-03T06:28:09.712Z,4.85
2023-07-03T06:28:51.946Z,4.40
2023-07-03T06:29:34.690Z,5.30
2023-07-03T06:30:16.992Z,5.53
2023-07-03T06:30:59.251Z,4.93
2023-07-03T06:31:43.983Z,4.60
2023-07-03T06:32:26.261Z,5.60
2023-07-03T06:33:08.577Z,5.65
2023-07-03T06:33:50.948Z,5.25
2023-07-03T06:34:33.182Z,5.00
2023-07-03T06:35:16.142Z,5.30
2023-07-03T06:35:58.533Z,4.72
2023-07-03T06:36:41.177Z,4.68
2023-07-03T06:37:23.387Z,5.40
2023-07-03T06:38:05.877Z,5.22
2023-07-03T06:38:49.864Z,4.90
2023-07-03T06:39:32.151Z,5.15
2023-07-03T06:40:17.092Z,4.50
2023-07-03T06:41:00.124Z,4.40
2023-07-03T06:41:42.429Z,5.20
2023-07-03T06:42:24.655Z,4.80
2023-07-03T06:43:09.173Z,5.50
2023-07-03T06:43:53.847Z,4.82
2023-07-03T06:44:36.013Z,4.40
2023-07-03T06:45:18.331Z,4.75
2023-07-03T06:46:03.089Z,4.50
2023-07-03T06:46:45.686Z,4.60
2023-07-03T06:47:28.039Z,4.53
2023-07-03T06:48:10.348Z,5.10
2023-07-03T06:48:52.639Z,4.68
2023-07-03T06:49:36.190Z,4.38
2023-07-03T06:50:18.442Z,4.90
2023-07-03T06:51:04.600Z,5.10
2023-07-03T06:51:46.849Z,5.45
2023-07-03T06:52:29.073Z,5.57
2023-07-03T06:53:11.281Z,4.95
2023-07-03T06:53:53.520Z,5.10
2023-07-03T06:54:35.945Z,4.97
2023-07-03T06:55:18.252Z,4.70
2023-07-03T06:56:01.072Z,5.60
2023-07-03T06:56:43.322Z,5.57
2023-07-03T06:57:25.540Z,5.10
2023-07-03T06:58:07.965Z,4.78
2023-07-03T06:58:50.633Z,5.15
2023-07-03T06:59:32.987Z,5.07
2023-07-03T07:00:15.449Z,4.65
2023-07-03T07:00:58.094Z,5.45
2023-07-03T07:01:41.067Z,5.07
2023-07-03T07:02:23.449Z,4.70
2023-07-03T07:03:08.050Z,5.07
2023-07-03T07:03:53.267Z,5.00
2023-07-03T07:04:35.588Z,5.78
2023-07-03T07:05:17.920Z,5.05
2023-07-03T07:06:00.562Z,5.22
2023-07-03T07:06:43.085Z,5.55
2023-07-03T07:07:25.464Z,5.78
2023-07-03T07:08:08.060Z,6.10
2023-07-03T07:08:50.364Z,5.82
2023-07-03T07:09:32.596Z,5.90
2023-07-03T07:10:15.017Z,5.57
2023-07-03T07:10:57.223Z,5.30
2023-07-03T07:11:39.466Z,5.15
2023-07-03T07:12:22.901Z,6.50
2023-07-03T07:13:05.188Z,5.32
2023-07-03T07:13:48.535Z,4.70
2023-07-03T07:14:32.796Z,5.67
2023-07-03T07:15:15.080Z,5.80
2023-07-03T07:15:57.296Z,5.07
2023-07-03T07:16:41.131Z,5.00
2023-07-03T07:17:26.089Z,5.43
2023-07-03T07:18:15.147Z,5.65
2023-07-03T07:18:58.710Z,5.35
2023-07-03T07:19:41.041Z,5.93
2023-07-03T07:20:23.245Z,6.03
2023-07-03T07:21:05.472Z,5.90
2023-07-03T07:21:48.089Z,5.40
2023-07-03T07:22:30.298Z,5.30
2023-07-03T07:23:13.528Z,4.90
2023-07-03T07:23:57.604Z,5.82
2023-07-03T07:24:39.862Z,5.63
2023-07-03T07:25:22.109Z,4.88
2023-07-03T07:26:04.379Z,5.07
2023-07-03T07:26:47.625Z,4.50
2023-07-03T07:27:29.859Z,4.90
2023-07-03T07:28:14.336Z,5.20
2023-07-03T07:28:56.666Z,5.22
2023-07-03T07:29:41.277Z,5.00
2023-07-03T07:30:23.875Z,4.95
2023-07-03T07:31:06.223Z,5.47
2023-07-03T07:31:48.499Z,4.60
2023-07-03T07:32:30.763Z,5.30
2023-07-03T07:33:13.145Z,5.00
2023-07-03T07:33:55.394Z,4.80
2023-07-03T07:34:37.595Z,4.70
2023-07-03T07:35:20.218Z,5.30
2023-07-03T07:36:02.469Z,5.60
2023-07-03T07:36:44.757Z,5.03
2023-07-03T07:37:29.343Z,5.03
2023-07-03T07:38:12.237Z,5.40
2023-07-03T07:38:56.708Z,5.75
2023-07-03T07:39:43.822Z,5.15
2023-07-03T07:40:26.151Z,5.43
2023-07-03T07:41:08.649Z,4.88
2023-07-03T07:41:52.475Z,4.90
2023-07-03T07:42:34.821Z,5.22
2023-07-03T07:43:17.195Z,4.40
2023-07-03T07:44:00.177Z,5.00
2023-07-03T07:44:42.384Z,4.97
2023-07-03T07:45:24.622Z,4.95
2023-07-03T07:46:08.030Z,5.20
2023-07-03T07:46:50.434Z,5.80
2023-07-03T07:47:32.761Z,4.82
2023-07-03T07:48:15.045Z,5.03
2023-07-03T07:48:58.060Z,5.32
2023-07-03T07:49:43.541Z,5.47
2023-07-03T07:50:25.871Z,5.32
2023-07-03T07:51:09.157Z,4.88
2023-07-03T07:51:51.552Z,4.80
2023-07-03T07:52:33.744Z,4.53
2023-07-03T07:53:18.332Z,4.97
2023-07-03T07:54:02.988Z,4.90
2023-07-03T07:54:45.254Z,4.80
2023-07-03T07:55:27.902Z,5.30
2023-07-03T07:56:11.389Z,4.30
2023-07-03T07:56:53.608Z,4.95
2023-07-03T07:57:38.416Z,4.72
2023-07-03T07:58:20.658Z,4.20
2023-07-03T07:59:03.329Z,4.50
2023-07-03T07:59:45.510Z,4.75
2023-07-03T08:00:27.755Z,5.47
2023-07-03T08:01:12.762Z,5.13
2023-07-03T08:01:55.154Z,4.75
2023-07-03T08:02:37.692Z,4.97
2023-07-03T08:03:20.051Z,5.25
2023-07-03T08:04:02.367Z,4.35
2023-07-03T08:04:45.390Z,4.93
2023-07-03T08:05:27.921Z,4.65
2023-07-03T08:06:10.710Z,4.55
2023-07-03T08:06:53.350Z,4.40
2023-07-03T08:07:35.752Z,4.55
2023-07-03T08:08:18.178Z,5.30
2023-07-03T08:09:00.383Z,5.60
2023-07-03T08:09:42.633Z,4.78
2023-07-03T08:10:24.930Z,4.10
2023-07-03T08:11:08.189Z,4.40
2023-07-03T08:11:50.588Z,4.55
2023-07-03T08:12:32.825Z,4.70
2023-07-03T08:13:15.113Z,4.47
2023-07-03T08:13:57.454Z,4.70
2023-07-03T08:14:39.689Z,4.28
2023-07-03T08:15:21.938Z,4.70
2023-07-03T08:16:04.540Z,4.65
2023-07-03T08:16:46.877Z,4.38
2023-07-03T08:17:29.361Z,4.10
2023-07-03T08:18:11.711Z,4.53
2023-07-03T08:18:54.040Z,4.53
2023-07-03T08:19:36.416Z,4.47
2023-07-03T08:20:18.671Z,4.68
2023-07-03T08:21:00.950Z,4.77
2023-07-03T08:21:43.361Z,5.00
2023-07-03T08:22:26.208Z,5.40
2023-07-03T08:23:08.456Z,4.28
2023-07-03T08:23:50.719Z,4.00
2023-07-03T08:24:32.965Z,4.10
2023-07-03T08:25:15.446Z,4.30
2023-07-03T08:25:57.732Z,4.00
2023-07-03T08:26:40.323Z,3.60
2023-07-03T08:27:22.544Z,3.60
2023-07-03T08:28:05.433Z,3.80
2023-07-03T08:28:47.725Z,4.38
2023-07-03T08:29:30.155Z,4.20
2023-07-03T08:30:12.682Z,4.43
2023-07-03T08:30:54.904Z,4.30
2023-07-03T08:31:37.217Z,5.07
2023-07-03T08:32:21.045Z,4.82
2023-07-03T08:33:03.861Z,4.82
2023-07-03T08:33:46.847Z,3.80
2023-07-03T08:34:29.404Z,4.60
2023-07-03T08:37:27.021Z,4.10
2023-07-03T08:38:12.154Z,4.37
2023-07-03T08:38:54.638Z,3.92
2023-07-03T08:39:39.012Z,4.30
2023-07-03T08:40:24.507Z,3.40
2023-07-03T08:41:06.760Z,4.10
2023-07-03T08:41:57.523Z,4.40
2023-07-03T08:42:59.424Z,4.07
2023-07-03T08:43:48.811Z,4.32
2023-07-03T08:44:31.953Z,4.15
2023-07-03T08:45:14.985Z,3.90
2023-07-03T08:45:57.541Z,4.30
2023-07-03T08:46:40.535Z,4.38
2023-07-03T08:47:24.702Z,4.40
2023-07-03T08:48:09.683Z,4.50
2023-07-03T08:48:53.624Z,3.97
2023-07-03T08:49:35.842Z,4.10
2023-07-03T08:50:32.005Z,4.40
2023-07-03T08:51:20.516Z,3.65
2023-07-03T08:52:03.702Z,4.13
2023-07-03T08:52:53.918Z,4.50
2023-07-03T08:53:38.151Z,4.43
2023-07-03T08:54:24.786Z,4.10
2023-07-03T08:55:08.613Z,3.72
2023-07-03T08:55:50.829Z,3.88
2023-07-03T08:56:34.715Z,4.07
2023-07-03T08:57:17.604Z,4.32
2023-07-03T08:57:59.917Z,4.35
2023-07-03T08:58:42.683Z,4.18
2023-07-03T08:59:24.884Z,4.18
2023-07-03T09:00:14.669Z,3.60
2023-07-03T09:01:04.114Z,4.10
2023-07-03T09:01:57.082Z,4.25
2023-07-03T09:02:42.497Z,3.90
2023-07-03T09:03:36.973Z,3.90
2023-07-03T09:04:37.707Z,4.10
2023-07-03T09:05:35.151Z,4.15
2023-07-03T09:06:20.331Z,4.50
2023-07-03T09:07:15.686Z,4.45
2023-07-03T09:08:00.554Z,3.80
2023-07-03T09:09:03.757Z,3.90
2023-07-03T09:09:56.906Z,4.10
2023-07-03T09:10:41.902Z,4.20
2023-07-03T09:11:25.091Z,4.07
2023-07-03T09:12:34.493Z,3.28
2023-07-03T09:13:25.663Z,4.20
2023-07-03T09:14:10.677Z,4.50
2023-07-03T09:14:56.486Z,3.95
2023-07-03T09:15:44.791Z,3.50
2023-07-03T09:16:27.166Z,3.42
2023-07-03T09:17:11.277Z,3.60
2023-07-03T09:17:54.919Z,4.10
2023-07-03T09:18:40.813Z,4.30
2023-07-03T09:19:25.375Z,4.10
2023-07-03T09:20:08.689Z,4.18
2023-07-03T09:20:51.091Z,3.85
2023-07-03T09:21:36.532Z,4.10
2023-07-03T09:22:29.671Z,3.72
2023-07-03T09:23:17.979Z,3.80
2023-07-03T09:24:13.836Z,3.58
2023-07-03T09:24:58.379Z,4.60
2023-07-03T09:25:50.069Z,4.32
2023-07-03T09:26:36.063Z,4.68
2023-07-03T09:27:20.753Z,4.30
2023-07-03T09:28:04.159Z,3.88
2023-07-03T09:28:46.753Z,4.25
2023-07-03T09:29:29.824Z,4.00
2023-07-03T09:30:17.253Z,4.22
2023-07-03T09:31:01.274Z,3.90
2023-07-03T09:31:44.410Z,4.40
2023-07-03T09:32:28.341Z,4.28
2023-07-03T09:33:10.783Z,3.65
2023-07-03T09:33:53.028Z,3.70
2023-07-03T09:34:58.893Z,4.00
2023-07-03T09:35:42.133Z,3.42
2023-07-03T09:36:26.557Z,3.65
2023-07-03T09:37:09.075Z,3.40
2023-07-03T09:37:53.122Z,3.50
2023-07-03T09:38:38.092Z,3.40
2023-07-03T09:39:20.720Z,3.78
2023-07-03T09:40:06.451Z,4.15
2023-07-03T09:40:54.557Z,3.50
2023-07-03T09:41:38.140Z,3.67
2023-07-03T09:42:22.234Z,3.65
2023-07-03T09:43:04.750Z,3.63
2023-07-03T09:43:47.284Z,3.50